Brazoria County Airport
KLBX : now visible

Airfield :











YOU CAN JOIN US ON...

 
LOGIN :

Register | Disclaimer

   EN    FR    IT 

 









Legend :    VFR   Marginal VFR   IFR   Intensive IFR   Very Intensive IFR
Visi :
Ceiling :
>= 8 km
>= 3000ft
5 to 8 km
1000 to 3000 ft
1500m to 5 km
500 to 1000 ft
800 to 1500m
200 to 500 ft
< 800m
< 200 ft
Symbols :   Thunderstorms  Fog  Heavy snow  Heavy precipitations  Wind > 20 kt






- Airport Elevation : 25 ft


KLBX - Brazoria County

CURRENT METAR :
  • 081953Z AUTO 09008KT 7SM OVC012 21/17 A2999 RMK AO2 SLP155 T02060172

EXPIRED METARs :
  • 081935Z AUTO 13005KT 9SM BKN012 OVC022 22/18 A2999 RMK AO2 T02170178
  • 081925Z AUTO VRB04KT 9SM SCT012 OVC022 22/18 A3000 RMK AO2 T02170178
  • 081853Z AUTO 12004KT 7SM OVC010 21/18 A3001 RMK AO2 SLP161 T02110178
  • 081843Z AUTO 04003KT 8SM OVC010 21/18 A3001 RMK AO2 T02110178
  • 081800Z AUTO 06003KT 7SM BKN009 OVC019 21/18 A3003 RMK AO2 T02060178

TAF KLBX
Valid from the 08 at 20:00 until the 09 at 18:00 UTC


082002Z 0820/0918 13007KT P6SM OVC015
FM090700 14005KT 4SM BR OVC006
FM091200 18005KT 2SM BR OVC003
FM091600 19009KT 5SM BR OVC015
KZHU FIR / North America



MET'MAP, your aeronautical weather chart ! - Copyright ORBIFLY December 2007 - Disclaimer

ORBIFLY MET'MAP TEAM :

Programming & Development : Alexandra Zaïnal
Concept & original design : Baudouin d'Aumeries
Assistance for programming : Marc-Olivier Méhu
Technical & hardware support : Manuel Goepfert

Contact : metmap@orbifly.com




SOURCES & CREDITS :

   NOAA       Earth
Advisory